Portada
METAR-TAF:

METAR-TAF

Aeroports :

Christchurch, Nova Zelanda

latitud: 43-29S, longitud: 172-33E, altitud: 38 m

Observació

L'informe es va fer fa 25 minuts, a les 23:30 UTC
Vent 13 kt del Est/Nord-Est
Temperatura 10°C
Humitat 76%
Pressió 1024 hPa
Visibilitat 10 km o més

METAR: NZCH 032330Z AUTO 07013KT 9999 NCD 10/06 Q1024 NOSIG

Hora: 11:55 (23:55 UTC)

Pronòstic

L'informe es va fer fa 6 hores i 53 minuts, a les 17:02 UTC
Pronòstic vàlid del 03 a les 18 UTC al 04 a les 18 UTC
Vent 2 kt amb direcció variable
Visibilitat 10 km o més
sense núvols per sota de 1500 mi sense presència de cumulonimbus.
Evolucionant progressivament
l' 03 a les 21 UTC al 03 a les 23 UTC
Vent 10 kt del Est/Nord-Est
Evolucionant progressivament
l' 04 a les 06 UTC al 04 a les 08 UTC
Vent 2 kt amb direcció variable

TAF: NZCH 031702Z 0318/0418 VRB02KT CAVOK BECMG 0321/0323 06010KT BECMG 0406/0408 VRB02KT

Observacions i pronòstics meteorològics de més de 4000 aeroports (METAR i TAF).

Les estacions disponibles són els punts grocs i vermells al mapa.

Posi el ratolí al punt desitjat per veure el nom de l'estació.

Feu clic per veure les observacions i els pronòstics meteorològics.

Per canviar el mapa: feu clic els botons verds amb una creu de color negre per apropar; al botó verd amb un guió per allunyar la imatge; o en les fletxes verdes per a mapes adjacents.


METAR-TAF: